This is the latest recevied weather packets stored in our database for station/object WX5II-2. If no packets are shown the sender has not sent any weather packets the latest 10 day(s).
| Time | Temp. | Humidity | Pressure | Rain* | Wind** | Luminosity | Snow |
|---|---|---|---|---|---|---|---|
| 1777824532 | 22.22° C | 33% | 1022.4 hPa | 0 mm | 0 m/s | - | - |
| 1777823908 | 21.67° C | 34% | 1022.4 hPa | 0 mm | 0 m/s | - | - |
| 1777823285 | 21.67° C | 35% | 1022.4 hPa | 0 mm | 0 m/s | - | - |
| 1777822661 | 21.67° C | 36% | 1023.4 hPa | 0 mm | 0 m/s | - | - |
| 1777822038 | 21.11° C | 37% | 1023.4 hPa | 0 mm | 0 m/s | - | - |
| 1777821415 | 21.11° C | 37% | 1023.4 hPa | 0 mm | 0 m/s | - | - |
| 1777820792 | 21.11° C | 38% | 1023.4 hPa | 0 mm | 0 m/s | - | - |
| 1777820168 | 21.11° C | 38% | 1023.4 hPa | 0 mm | 0 m/s | - | - |
| 1777819545 | 21.11° C | 42% | 1023.4 hPa | 0 mm | 0 m/s | - | - |
| 1777818922 | 21.11° C | 42% | 1022.4 hPa | 0 mm | 0 m/s | - | - |
| 1777818299 | 20.56° C | 41% | 1022.4 hPa | 0 mm | 0 m/s | - | - |
| 1777817678 | 20° C | 42% | 1023.4 hPa | 0 mm | 0 m/s | - | - |
| 1777817053 | 20° C | 42% | 1023.4 hPa | 0 mm | 0 m/s | - | - |
| 1777816430 | 20° C | 40% | 1023.4 hPa | 0 mm | 0 m/s | - | - |
| 1777815806 | 20° C | 41% | 1023.4 hPa | 0 mm | 0 m/s | - | - |
| 1777815183 | 19.44° C | 41% | 1023.4 hPa | 0 mm | 0 m/s | - | - |
| 1777814560 | 19.44° C | 41% | 1023.4 hPa | 0 mm | 0 m/s | - | - |
| 1777813937 | 18.33° C | 43% | 1023.4 hPa | 0 mm | 0 m/s | - | - |
| 1777813314 | 17.78° C | 44% | 1023.4 hPa | 0 mm | 0 m/s | - | - |
| 1777812691 | 16.67° C | 47% | 1023.4 hPa | 0 mm | 0 m/s | - | - |
| 1777811446 | 14.44° C | 55% | 1023.4 hPa | 0 mm | 0 m/s | - | - |
| 1777810824 | 13.33° C | 59% | 1023.4 hPa | 0 mm | 0 m/s | - | - |
| 1777810201 | 13.33° C | 59% | 1023.4 hPa | 0 mm | 0 m/s | - | - |
| 1777809579 | 12.78° C | 58% | 1023.4 hPa | 0 mm | 0 m/s | - | - |
| 1777808959 | 13.33° C | 57% | 1023.4 hPa | 0 mm | 0 m/s | - | - |
* Rain latest hour (hover to see other rain measurements)
** Current wind speed in m/s (hover to see current wind gust speed)